Time;durP1;ratioP1;P1;durP2;ratioP2;P2;SDS_P1;SDS_P2;PMS_P1;PMS_P2;Temp;Humidity;BMP_temperature;BMP_pressure;BME280_temperature;BME280_humidity;BME280_pressure;Samples;Min_cycle;Max_cycle;Signal;HPM_P1;HPM_P2
2023/04/19 00:09:30;;;;;;;17.13;10.95;;;5.70;99.90;;;;;;20739017;28;20365;-52
2023/04/19 00:19:31;;;;;;;17.55;10.75;;;5.60;99.90;;;;;;20738388;28;20050;-52
2023/04/19 00:29:33;;;;;;;15.68;10.15;;;5.50;99.90;;;;;;20750010;28;20483;-61
2023/04/19 00:39:35;;;;;;;15.13;9.88;;;5.40;99.90;;;;;;20752065;28;20112;-51
2023/04/19 00:49:39;;;;;;;17.65;10.75;;;5.30;99.90;;;;;;20751129;28;20034;-52
2023/04/19 00:59:41;;;;;;;15.73;10.18;;;5.30;99.90;;;;;;20750578;28;20033;-52
2023/04/19 01:09:44;;;;;;;13.50;8.95;;;5.30;99.90;;;;;;20750560;28;20034;-62
2023/04/19 01:19:46;;;;;;;13.10;8.77;;;5.30;99.90;;;;;;20748794;28;20041;-62
2023/04/19 01:29:47;;;;;;;15.30;9.48;;;5.30;99.90;;;;;;20748865;28;20505;-61
2023/04/19 01:39:49;;;;;;;18.08;10.02;;;5.20;99.90;;;;;;20746640;28;20073;-51
2023/04/19 01:49:51;;;;;;;18.67;11.27;;;5.20;99.90;;;;;;20746981;28;20030;-53
2023/04/19 01:59:53;;;;;;;21.33;12.30;;;5.10;99.90;;;;;;20747200;28;20486;-52
2023/04/19 02:09:54;;;;;;;22.20;12.70;;;4.90;99.90;;;;;;20746604;28;20025;-61
2023/04/19 02:19:56;;;;;;;21.38;12.77;;;4.60;99.90;;;;;;20744243;28;20069;-51
2023/04/19 02:29:57;;;;;;;19.13;11.93;;;4.40;99.90;;;;;;20744669;28;20041;-52
2023/04/19 02:39:59;;;;;;;19.88;10.73;;;4.20;99.90;;;;;;20744143;28;20030;-53
2023/04/19 02:50:04;;;;;;;14.85;8.70;;;4.20;99.90;;;;;;20742781;28;20376;-61
2023/04/19 03:00:11;;;;;;;12.40;7.55;;;4.10;99.90;;;;;;20741519;28;20038;-61
2023/04/19 03:10:15;;;;;;;14.52;8.07;;;4.00;99.90;;;;;;20740848;28;20413;-49
2023/04/19 03:20:17;;;;;;;17.08;9.10;;;3.90;99.90;;;;;;20740072;28;20444;-61
2023/04/19 03:30:20;;;;;;;17.15;8.13;;;3.90;99.90;;;;;;20722872;28;20033;-62
2023/04/19 03:40:22;;;;;;;13.32;7.45;;;3.80;99.90;;;;;;20740342;28;20038;-63
2023/04/19 03:50:24;;;;;;;14.85;8.50;;;3.60;99.90;;;;;;20738322;28;20324;-61
2023/04/19 04:00:28;;;;;;;13.77;7.60;;;3.20;99.90;;;;;;20744439;28;20037;-50
2023/04/19 04:10:34;;;;;;;17.52;8.02;;;3.00;99.90;;;;;;20753067;28;20549;-53
2023/04/19 04:20:36;;;;;;;14.57;7.57;;;3.00;99.90;;;;;;20753471;28;20049;-48
2023/04/19 04:30:42;;;;;;;13.50;7.75;;;3.00;99.90;;;;;;20753475;28;20038;-51
2023/04/19 04:40:52;;;;;;;11.10;5.47;;;3.10;99.90;;;;;;20709959;28;20026;-52
2023/04/19 04:50:54;;;;;;;8.50;5.18;;;3.20;99.90;;;;;;20751254;28;20092;-50
2023/04/19 05:00:56;;;;;;;10.82;6.18;;;3.40;99.90;;;;;;20751087;28;20034;-50
2023/04/19 05:10:59;;;;;;;10.45;5.18;;;3.80;99.90;;;;;;20749853;28;20034;-50
2023/04/19 05:21:05;;;;;;;7.93;4.88;;;4.20;99.90;;;;;;20748750;28;20057;-51
2023/04/19 05:31:08;;;;;;;6.60;4.07;;;4.30;99.90;;;;;;20748384;28;20115;-51
2023/04/19 05:41:17;;;;;;;7.03;4.20;;;4.20;99.90;;;;;;20747563;28;20030;-51
2023/04/19 05:51:21;;;;;;;5.43;3.30;;;4.20;99.90;;;;;;20749105;28;20054;-49
2023/04/19 06:01:43;;;;;;;6.07;4.05;;;4.20;99.90;;;;;;20745703;28;20100;-61
2023/04/19 06:11:45;;;;;;;4.68;2.80;;;4.50;99.90;;;;;;20743923;28;20030;-52
2023/04/19 06:21:47;;;;;;;3.75;2.45;;;5.00;99.90;;;;;;20745011;28;20395;-62
2023/04/19 06:31:48;;;;;;;3.45;2.10;;;5.80;99.90;;;;;;20744974;28;20040;-65
2023/04/19 06:41:50;;;;;;;2.50;1.80;;;8.40;99.90;;;;;;20744514;28;20081;-50
2023/04/19 06:51:52;;;;;;;3.00;1.70;;;10.40;99.90;;;;;;20725918;28;20569;-51
2023/04/19 07:01:55;;;;;;;2.35;1.75;;;9.90;99.90;;;;;;20742749;28;20038;-53
2023/04/19 07:11:57;;;;;;;2.50;2.08;;;9.20;99.90;;;;;;20742292;28;20042;-53
2023/04/19 07:21:58;;;;;;;3.33;2.33;;;8.60;99.90;;;;;;20741004;28;20049;-52
2023/04/19 07:32:00;;;;;;;3.25;2.33;;;8.30;99.90;;;;;;20752165;28;20076;-51
2023/04/19 07:42:02;;;;;;;3.75;2.60;;;8.30;99.90;;;;;;20771234;28;20026;-52
2023/04/19 07:52:06;;;;;;;2.75;2.22;;;8.40;99.90;;;;;;20739771;28;20364;-52
2023/04/19 08:02:08;;;;;;;3.85;2.70;;;8.60;99.90;;;;;;20739200;28;20045;-54
2023/04/19 08:12:09;;;;;;;2.92;2.03;;;8.90;99.90;;;;;;20740276;28;20391;-50
2023/04/19 08:22:11;;;;;;;2.75;2.20;;;9.40;99.90;;;;;;20738685;28;20038;-52
2023/04/19 08:32:12;;;;;;;2.88;2.30;;;9.80;99.90;;;;;;20738408;28;20026;-53
2023/04/19 08:42:14;;;;;;;3.05;2.30;;;10.00;99.90;;;;;;20736263;28;20491;-52
2023/04/19 08:52:17;;;;;;;2.75;2.08;;;10.20;99.90;;;;;;20751412;28;20033;-52
2023/04/19 09:02:19;;;;;;;3.15;2.30;;;10.50;99.90;;;;;;20752484;28;20080;-61
2023/04/19 09:12:20;;;;;;;4.05;2.53;;;11.00;99.90;;;;;;20751098;28;20030;-51
2023/04/19 09:22:23;;;;;;;3.20;2.60;;;10.90;99.90;;;;;;20750260;28;20439;-62
2023/04/19 09:32:25;;;;;;;3.45;2.58;;;13.30;99.90;;;;;;20749378;28;20053;-50
2023/04/19 09:42:45;;;;;;;4.10;3.20;;;14.70;99.90;;;;;;20750002;28;20100;-62
2023/04/19 09:52:49;;;;;;;4.63;3.50;;;14.60;99.90;;;;;;20748016;28;20030;-63
2023/04/19 10:02:56;;;;;;;4.97;4.00;;;14.30;99.90;;;;;;20745453;28;20071;-50
2023/04/19 10:13:00;;;;;;;6.55;3.80;;;13.60;99.90;;;;;;20747221;28;20042;-61
2023/04/19 10:23:06;;;;;;;4.75;4.22;;;14.70;99.90;;;;;;20745347;28;20041;-51
2023/04/19 10:33:07;;;;;;;6.20;4.50;;;15.50;99.90;;;;;;20744055;28;20034;-52
2023/04/19 10:43:12;;;;;;;6.72;4.47;;;14.10;99.90;;;;;;20746526;28;20529;-48
2023/04/19 10:54:05;;;;;;;5.65;3.83;;;12.60;99.90;;;;;;20743297;28;20434;-50
2023/04/19 11:04:07;;;;;;;6.60;4.47;;;13.30;99.90;;;;;;20617421;28;20108;-52
2023/04/19 11:14:09;;;;;;;6.60;5.07;;;12.90;99.90;;;;;;20650377;28;20038;-50
2023/04/19 11:24:11;;;;;;;6.32;4.60;;;12.50;99.90;;;;;;20650361;28;20125;-50
2023/04/19 11:34:13;;;;;;;7.32;5.60;;;12.90;99.90;;;;;;20679740;28;20045;-53
2023/04/19 11:44:19;;;;;;;8.43;6.28;;;12.90;99.90;;;;;;20740544;28;20080;-51
2023/04/19 11:54:22;;;;;;;9.30;6.88;;;12.10;99.90;;;;;;20688226;28;20035;-62
2023/04/19 12:04:24;;;;;;;11.93;7.85;;;11.50;99.90;;;;;;20704288;28;20033;-50
2023/04/19 12:14:25;;;;;;;10.60;7.55;;;11.60;99.90;;;;;;20738898;28;20034;-63
2023/04/19 12:24:27;;;;;;;10.65;7.00;;;13.40;99.90;;;;;;20748980;28;20041;-50
2023/04/19 12:34:29;;;;;;;10.23;6.90;;;15.30;99.90;;;;;;20754069;28;20034;-49
2023/04/19 12:44:31;;;;;;;9.20;6.90;;;14.90;99.90;;;;;;20753268;28;20037;-62
2023/04/19 12:54:32;;;;;;;8.55;6.65;;;13.90;99.90;;;;;;20768083;28;20034;-50
2023/04/19 13:04:35;;;;;;;8.38;5.97;;;14.20;99.90;;;;;;20750121;28;20487;-53
2023/04/19 13:14:36;;;;;;;9.10;6.03;;;14.00;99.90;;;;;;20749567;28;20545;-52
2023/04/19 13:24:38;;;;;;;8.85;5.75;;;12.90;99.90;;;;;;20749129;28;20462;-49
2023/04/19 13:34:40;;;;;;;7.70;5.80;;;12.10;99.90;;;;;;20747839;28;20033;-50
2023/04/19 13:44:42;;;;;;;7.97;5.50;;;12.00;99.90;;;;;;20748650;28;20072;-51
2023/04/19 13:54:43;;;;;;;9.80;6.05;;;11.90;99.90;;;;;;20748885;28;20068;-52
2023/04/19 14:04:45;;;;;;;10.20;7.40;;;11.90;99.90;;;;;;20743010;28;20038;-62
2023/04/19 14:14:46;;;;;;;11.57;7.35;;;11.70;99.90;;;;;;20746221;28;20037;-51
2023/04/19 14:24:48;;;;;;;10.23;7.13;;;11.80;99.90;;;;;;20745780;28;20096;-52
2023/04/19 14:34:53;;;;;;;9.90;7.07;;;11.60;99.90;;;;;;20745256;28;20037;-50
2023/04/19 14:44:54;;;;;;;8.70;6.85;;;11.30;99.90;;;;;;20744669;28;20230;-53
2023/04/19 14:54:56;;;;;;;11.65;7.95;;;10.80;99.90;;;;;;20742368;28;20085;-60
2023/04/19 15:04:58;;;;;;;14.52;9.43;;;10.40;99.90;;;;;;20742910;28;20026;-61
2023/04/19 15:14:59;;;;;;;10.45;8.10;;;10.30;99.90;;;;;;20742317;28;20092;-62
2023/04/19 15:25:01;;;;;;;10.45;7.63;;;10.10;99.90;;;;;;20741729;28;20038;-55
2023/04/19 15:35:04;;;;;;;11.10;8.40;;;9.70;99.90;;;;;;20741025;28;20030;-54
2023/04/19 15:45:06;;;;;;;13.23;8.73;;;9.20;99.90;;;;;;20740050;28;20096;-62
2023/04/19 15:55:08;;;;;;;9.88;7.50;;;8.70;99.90;;;;;;20739104;28;20038;-53
2023/04/19 16:05:10;;;;;;;11.80;7.18;;;8.40;99.90;;;;;;20739513;28;20026;-55
2023/04/19 16:15:12;;;;;;;7.22;4.85;;;8.00;99.90;;;;;;20737069;28;20046;-55
2023/04/19 16:25:15;;;;;;;5.97;4.32;;;7.90;99.90;;;;;;20738652;28;20034;-54
2023/04/19 16:35:17;;;;;;;5.82;4.20;;;7.80;99.90;;;;;;20720557;28;20402;-52
2023/04/19 16:45:19;;;;;;;8.00;5.10;;;7.40;99.90;;;;;;20735011;28;20467;-50
2023/04/19 16:55:20;;;;;;;8.63;5.75;;;7.10;99.90;;;;;;20737672;28;20411;-48
2023/04/19 17:05:22;;;;;;;6.20;4.55;;;7.00;99.90;;;;;;20739587;28;20506;-60
2023/04/19 17:15:24;;;;;;;6.25;4.07;;;6.90;99.90;;;;;;20751157;28;20115;-61
2023/04/19 17:25:26;;;;;;;4.68;3.15;;;6.90;99.90;;;;;;20749330;28;20088;-52
2023/04/19 17:35:28;;;;;;;4.63;3.58;;;6.90;99.90;;;;;;20749646;28;20049;-53
2023/04/19 17:45:29;;;;;;;4.07;2.88;;;6.80;99.90;;;;;;20748980;28;20030;-53
2023/04/19 17:55:32;;;;;;;4.57;3.20;;;6.50;99.90;;;;;;20746889;28;20042;-53
2023/04/19 18:05:34;;;;;;;4.15;2.50;;;6.30;99.90;;;;;;20747129;28;20030;-60
2023/04/19 18:15:35;;;;;;;4.03;2.83;;;6.30;99.90;;;;;;20746415;28;20053;-60
2023/04/19 18:25:37;;;;;;;4.68;3.08;;;6.30;99.90;;;;;;20745999;28;20052;-52
2023/04/19 18:35:40;;;;;;;4.10;2.60;;;6.20;99.90;;;;;;20743580;28;20458;-54
2023/04/19 18:45:41;;;;;;;5.22;2.70;;;6.00;99.90;;;;;;20743268;28;20036;-54
2023/04/19 18:55:43;;;;;;;5.15;3.08;;;5.70;99.90;;;;;;20758531;28;20069;-52
2023/04/19 19:05:45;;;;;;;3.90;3.00;;;5.40;99.90;;;;;;20743228;28;20034;-54
2023/04/19 19:15:47;;;;;;;5.20;3.83;;;5.10;99.90;;;;;;20742153;28;20049;-55
2023/04/19 19:25:49;;;;;;;6.22;3.90;;;4.90;99.90;;;;;;20741458;28;20483;-55
2023/04/19 19:35:51;;;;;;;8.65;5.20;;;4.90;99.90;;;;;;20738793;28;20049;-54
2023/04/19 19:45:53;;;;;;;8.25;5.80;;;4.80;99.90;;;;;;20740033;28;20076;-56
2023/04/19 19:55:55;;;;;;;12.68;6.32;;;4.70;99.90;;;;;;20739901;28;20084;-53
2023/04/19 20:05:56;;;;;;;10.35;6.97;;;4.70;99.90;;;;;;20739460;28;20083;-54
2023/04/19 20:15:59;;;;;;;10.45;6.93;;;4.70;99.90;;;;;;20738956;28;20050;-60
2023/04/19 20:26:01;;;;;;;10.13;6.90;;;4.80;99.90;;;;;;20739033;28;20080;-55
2023/04/19 20:36:05;;;;;;;12.75;7.53;;;4.90;99.90;;;;;;20738901;28;20052;-55
2023/04/19 20:46:07;;;;;;;10.63;6.70;;;5.00;99.90;;;;;;20749032;28;20156;-55
2023/04/19 20:56:09;;;;;;;8.95;6.88;;;5.20;99.90;;;;;;20752871;28;20034;-55
2023/04/19 21:06:11;;;;;;;9.77;6.70;;;5.30;99.90;;;;;;20751654;28;20379;-54
2023/04/19 21:16:13;;;;;;;9.63;6.93;;;5.50;99.90;;;;;;20751048;28;20088;-55
2023/04/19 21:26:14;;;;;;;9.85;6.95;;;5.80;99.90;;;;;;20750353;28;20041;-55
2023/04/19 21:36:16;;;;;;;10.90;7.78;;;6.00;99.90;;;;;;20749462;28;20038;-54
2023/04/19 21:46:18;;;;;;;12.77;8.20;;;6.10;99.90;;;;;;20748841;28;20099;-52
2023/04/19 21:56:19;;;;;;;15.40;9.30;;;6.20;99.90;;;;;;20747008;28;20495;-55
2023/04/19 22:06:21;;;;;;;14.57;9.65;;;6.30;99.90;;;;;;20747152;28;20045;-54
2023/04/19 22:16:22;;;;;;;14.50;9.68;;;6.20;99.90;;;;;;20761424;28;20510;-54
2023/04/19 22:26:25;;;;;;;14.52;10.30;;;6.20;99.90;;;;;;20744955;28;20034;-53
2023/04/19 22:36:27;;;;;;;15.77;9.02;;;6.20;99.90;;;;;;20743687;28;20050;-54
2023/04/19 22:46:28;;;;;;;10.88;8.05;;;6.10;99.90;;;;;;20745559;28;20089;-55
2023/04/19 22:56:30;;;;;;;11.27;8.00;;;6.20;99.90;;;;;;20743957;28;20446;-53
2023/04/19 23:06:31;;;;;;;9.73;7.40;;;6.20;99.90;;;;;;20742708;28;20029;-49
2023/04/19 23:16:33;;;;;;;11.38;7.97;;;6.20;99.90;;;;;;20742725;28;20042;-51
2023/04/19 23:26:35;;;;;;;11.38;8.35;;;6.10;99.90;;;;;;20742311;28;20501;-50
2023/04/19 23:36:36;;;;;;;12.20;8.45;;;6.20;99.90;;;;;;20740761;28;20056;-47
2023/04/19 23:46:38;;;;;;;13.05;8.60;;;6.10;99.90;;;;;;20740247;28;20112;-49
2023/04/19 23:56:40;;;;;;;11.93;8.68;;;6.00;99.90;;;;;;20740146;28;20467;-52
